createdAt,value
2023-01-02T00:00:37.791Z,99836.63
2023-01-02T00:03:04.981Z,99820.66
2023-01-02T00:05:31.751Z,99761.97
2023-01-02T00:08:01.613Z,99771.31
2023-01-02T00:10:31.071Z,99791.03
2023-01-02T00:12:57.729Z,99811.63
2023-01-02T00:15:24.403Z,99772.31
2023-01-02T00:17:51.201Z,99807.47
2023-01-02T00:20:18.001Z,99800.75
2023-01-02T00:22:46.887Z,99783.22
2023-01-02T00:25:13.650Z,99812.81
2023-01-02T00:27:40.311Z,99778.13
2023-01-02T00:30:07.693Z,99787.66
2023-01-02T00:32:36.961Z,99834.84
2023-01-02T00:35:03.884Z,99833.28
2023-01-02T00:37:33.529Z,99855.38
2023-01-02T00:40:00.304Z,99844.25
2023-01-02T00:42:27.063Z,99863.91
2023-01-02T00:44:53.820Z,99855.47
2023-01-02T00:47:20.770Z,99828.88
2023-01-02T00:49:47.515Z,99853.75
2023-01-02T00:52:14.248Z,99840.94
2023-01-02T00:54:41.180Z,99869.94
2023-01-02T00:57:08.090Z,99866.44
2023-01-02T00:59:34.748Z,99851.06
2023-01-02T01:02:01.750Z,99844.41
2023-01-02T01:04:28.632Z,99856.25
2023-01-02T01:06:55.369Z,99834.03
2023-01-02T01:09:22.135Z,99846.72
2023-01-02T01:11:48.810Z,99855.38
2023-01-02T01:14:15.462Z,99832.19
2023-01-02T01:16:42.746Z,99846.81
2023-01-02T01:19:09.686Z,99862.13
2023-01-02T01:21:36.387Z,99855.38
2023-01-02T01:24:03.188Z,99869.06
2023-01-02T01:26:29.837Z,99880.19
2023-01-02T01:28:56.963Z,99875.94
2023-01-02T01:31:24.752Z,99854.00
2023-01-02T01:33:51.673Z,99852.38
2023-01-02T01:36:26.864Z,99898.50
2023-01-02T01:38:53.587Z,99896.03
2023-01-02T01:41:22.903Z,99903.00
2023-01-02T01:44:00.800Z,99899.59
2023-01-02T01:46:42.987Z,99901.41
2023-01-02T01:49:14.153Z,99865.63
2023-01-02T01:51:50.659Z,99889.50
2023-01-02T01:54:22.520Z,99828.22
2023-01-02T01:56:54.870Z,99924.59
2023-01-02T01:59:21.595Z,99902.56
2023-01-02T02:01:51.135Z,99904.34
2023-01-02T02:04:22.709Z,99897.56
2023-01-02T02:06:51.365Z,99914.63
2023-01-02T02:09:23.876Z,99922.41
2023-01-02T02:11:50.930Z,99910.50
2023-01-02T02:14:17.777Z,99906.22
2023-01-02T02:17:12.232Z,99926.69
2023-01-02T02:20:16.730Z,99939.59
2023-01-02T02:23:10.209Z,99937.22
2023-01-02T02:26:01.824Z,99934.47
2023-01-02T02:29:07.120Z,99943.13
2023-01-02T02:31:40.110Z,99941.38
2023-01-02T02:34:12.713Z,99922.50
2023-01-02T02:36:45.402Z,99943.00
2023-01-02T02:39:12.183Z,99950.59
2023-01-02T02:42:06.735Z,99953.03
2023-01-02T02:44:42.142Z,99882.19
2023-01-02T02:47:20.335Z,99953.81
2023-01-02T02:50:05.578Z,99903.34
2023-01-02T02:52:35.188Z,99942.44
2023-01-02T02:55:06.348Z,99901.59
2023-01-02T02:57:34.922Z,99939.88
2023-01-02T03:00:05.097Z,99960.28
2023-01-02T03:02:32.052Z,99954.22
2023-01-02T03:05:05.761Z,99941.41
2023-01-02T03:07:38.574Z,99966.88
2023-01-02T03:10:25.391Z,99914.91
2023-01-02T03:12:58.141Z,99973.63
2023-01-02T03:15:37.819Z,99976.97
2023-01-02T03:18:19.779Z,99979.59
2023-01-02T03:20:58.581Z,99936.09
2023-01-02T03:23:28.303Z,99965.84
2023-01-02T03:25:58.190Z,99924.66
2023-01-02T03:28:27.109Z,99953.88
2023-01-02T03:30:58.039Z,99931.78
2023-01-02T03:33:28.751Z,99947.91
2023-01-02T03:36:02.399Z,99965.66
2023-01-02T03:38:47.614Z,99964.97
2023-01-02T03:41:46.800Z,99973.00
2023-01-02T03:44:16.974Z,99917.03
2023-01-02T03:47:05.585Z,99974.34
2023-01-02T03:49:41.184Z,99960.16
2023-01-02T03:52:08.021Z,99932.06
2023-01-02T03:54:34.887Z,99918.50
2023-01-02T03:57:20.329Z,99983.38
2023-01-02T04:00:03.534Z,100002.31
2023-01-02T04:02:44.932Z,99981.03
2023-01-02T04:05:11.780Z,100007.56
2023-01-02T04:07:49.163Z,100003.28
2023-01-02T04:10:16.489Z,100013.53
2023-01-02T04:12:48.564Z,99957.28
2023-01-02T04:15:20.040Z,100010.28
2023-01-02T04:18:20.066Z,100016.91
2023-01-02T04:20:51.264Z,99965.69
2023-01-02T04:23:29.069Z,99982.72
2023-01-02T04:26:24.425Z,100014.31
2023-01-02T04:28:51.323Z,99991.25
2023-01-02T04:31:22.165Z,99965.69
2023-01-02T04:33:53.460Z,100033.22
2023-01-02T04:36:20.279Z,100002.38
2023-01-02T04:38:47.156Z,99996.53
2023-01-02T04:41:17.907Z,99968.28
2023-01-02T04:43:44.573Z,99998.97
2023-01-02T04:46:11.351Z,100004.03
2023-01-02T04:48:38.140Z,99998.84
2023-01-02T04:51:04.910Z,99987.03
2023-01-02T04:53:31.582Z,99993.78
2023-01-02T04:55:58.688Z,100004.03
2023-01-02T04:58:26.950Z,100034.72
2023-01-02T05:00:54.430Z,100040.81
2023-01-02T05:03:21.413Z,100005.84
2023-01-02T05:05:48.170Z,100015.25
2023-01-02T05:08:16.539Z,100015.34
2023-01-02T05:10:43.663Z,100061.44
2023-01-02T05:13:10.397Z,100048.56
2023-01-02T05:15:37.129Z,100000.84
2023-01-02T05:18:04.030Z,100059.84
2023-01-02T05:20:30.696Z,100012.13
2023-01-02T05:23:16.060Z,100076.94
2023-01-02T05:25:42.757Z,100022.41
2023-01-02T05:28:09.471Z,100019.88
2023-01-02T05:30:39.256Z,100078.81
2023-01-02T05:33:06.052Z,100024.19
2023-01-02T05:35:33.931Z,100063.59
2023-01-02T05:38:01.544Z,100078.16
2023-01-02T05:40:28.470Z,100057.66
2023-01-02T05:42:55.232Z,100027.72
2023-01-02T05:45:22.385Z,100029.38
2023-01-02T05:47:49.075Z,100073.72
2023-01-02T05:50:15.803Z,100047.19
2023-01-02T05:52:45.788Z,100067.69
2023-01-02T05:55:13.398Z,100067.88
2023-01-02T05:57:40.251Z,100047.44
2023-01-02T06:00:07.666Z,100073.91
2023-01-02T06:02:34.475Z,100050.03
2023-01-02T06:05:01.248Z,100080.88
2023-01-02T06:07:27.979Z,100053.44
2023-01-02T06:09:54.694Z,100105.56
2023-01-02T06:12:21.406Z,100128.72
2023-01-02T06:14:48.137Z,100113.41
2023-01-02T06:17:14.900Z,100087.78
2023-01-02T06:19:41.582Z,100104.88
2023-01-02T06:22:08.304Z,100111.84
2023-01-02T06:24:35.055Z,100132.34
2023-01-02T06:27:01.790Z,100080.19
2023-01-02T06:29:28.563Z,100124.72
2023-01-02T06:31:55.323Z,100115.31
2023-01-02T06:34:22.040Z,100101.69
2023-01-02T06:36:48.784Z,100135.94
2023-01-02T06:39:15.524Z,100166.81
2023-01-02T06:41:42.238Z,100152.25
2023-01-02T06:44:13.830Z,100166.00
2023-01-02T06:46:40.572Z,100148.97
2023-01-02T06:49:07.360Z,100170.38
2023-01-02T06:51:34.072Z,100155.78
2023-01-02T06:54:00.771Z,100144.72
2023-01-02T06:56:27.511Z,100177.31
2023-01-02T06:58:54.249Z,100129.44
2023-01-02T07:01:23.011Z,100127.78
2023-01-02T07:03:50.142Z,100128.53
2023-01-02T07:06:19.526Z,100179.81
2023-01-02T07:08:47.005Z,100168.75
2023-01-02T07:11:18.054Z,100202.19
2023-01-02T07:13:46.327Z,100136.34
2023-01-02T07:16:15.958Z,100127.81
2023-01-02T07:18:43.197Z,100142.34
2023-01-02T07:21:12.019Z,100203.09
2023-01-02T07:23:39.060Z,100211.72
2023-01-02T07:26:07.624Z,100209.19
2023-01-02T07:28:35.766Z,100219.69
2023-01-02T07:31:04.890Z,100169.22
2023-01-02T07:33:32.605Z,100167.50
2023-01-02T07:36:11.446Z,100219.66
2023-01-02T07:38:39.423Z,100163.13
2023-01-02T07:41:16.674Z,100190.56
2023-01-02T07:43:45.034Z,100188.00
2023-01-02T07:46:13.098Z,100192.22
2023-01-02T07:48:40.093Z,100235.72
2023-01-02T07:51:08.504Z,100217.69
2023-01-02T07:53:35.692Z,100205.63
2023-01-02T07:56:03.056Z,100246.69
2023-01-02T07:58:29.840Z,100205.69
2023-01-02T08:01:03.274Z,100225.47
2023-01-02T08:03:32.263Z,100247.69
2023-01-02T08:06:16.709Z,100228.06
2023-01-02T08:08:44.138Z,100257.19
2023-01-02T08:11:13.002Z,100258.88
2023-01-02T08:13:39.782Z,100225.59
2023-01-02T08:16:11.926Z,100241.88
2023-01-02T08:18:38.840Z,100200.78
2023-01-02T08:21:06.178Z,100247.03
2023-01-02T08:23:33.754Z,100208.44
2023-01-02T08:26:02.031Z,100239.31
2023-01-02T08:28:29.178Z,100214.53
2023-01-02T08:30:56.046Z,100237.72
2023-01-02T08:33:23.490Z,100289.06
2023-01-02T08:35:50.300Z,100295.88
2023-01-02T08:38:19.816Z,100267.72
2023-01-02T08:40:46.530Z,100306.25
2023-01-02T08:43:13.299Z,100284.03
2023-01-02T08:45:40.107Z,100306.34
2023-01-02T08:48:20.550Z,100263.50
2023-01-02T08:50:51.302Z,100300.34
2023-01-02T08:53:18.474Z,100332.06
2023-01-02T08:55:45.172Z,100248.97
2023-01-02T08:58:12.042Z,100299.50
2023-01-02T09:00:38.927Z,100284.94
2023-01-02T09:03:08.803Z,100344.13
2023-01-02T09:05:35.729Z,100347.53
2023-01-02T09:08:02.567Z,100332.97
2023-01-02T09:10:29.506Z,100297.03
2023-01-02T09:12:56.538Z,100356.19
2023-01-02T09:15:23.373Z,100370.69
2023-01-02T09:17:50.223Z,100352.75
2023-01-02T09:20:18.406Z,100382.75
2023-01-02T09:22:45.138Z,100317.63
2023-01-02T09:25:11.806Z,100340.72
2023-01-02T09:27:41.686Z,100383.56
2023-01-02T09:30:11.562Z,100332.97
2023-01-02T09:32:38.292Z,100321.88
2023-01-02T09:35:05.676Z,100345.88
2023-01-02T09:37:32.362Z,100367.31
2023-01-02T09:39:59.219Z,100327.03
2023-01-02T09:42:27.748Z,100375.00
2023-01-02T09:45:03.112Z,100363.91
2023-01-02T09:47:40.330Z,100334.72
2023-01-02T09:50:15.018Z,100364.69
2023-01-02T09:52:46.394Z,100423.84
2023-01-02T09:55:22.457Z,100416.03
2023-01-02T09:58:22.227Z,100394.69
2023-01-02T10:00:50.908Z,100423.78
2023-01-02T10:03:38.423Z,100435.75
2023-01-02T10:06:10.684Z,100403.19
2023-01-02T10:08:57.843Z,100398.94
2023-01-02T10:11:48.986Z,100445.25
2023-01-02T10:14:40.327Z,100445.19
2023-01-02T10:17:15.542Z,100374.88
2023-01-02T10:20:05.381Z,100424.59
2023-01-02T10:22:39.592Z,100380.84
2023-01-02T10:25:25.485Z,100386.88
2023-01-02T10:28:07.323Z,100417.63
2023-01-02T10:30:46.384Z,100457.94
2023-01-02T10:33:18.292Z,100446.66
2023-01-02T10:35:55.823Z,100455.22
2023-01-02T10:38:23.017Z,100432.19
2023-01-02T10:40:51.027Z,100443.25
2023-01-02T10:43:18.516Z,100452.84
2023-01-02T10:45:45.248Z,100446.06
2023-01-02T10:48:13.291Z,100452.84
2023-01-02T10:50:54.432Z,100478.47
2023-01-02T10:53:39.620Z,100499.03
2023-01-02T10:56:11.056Z,100498.13
2023-01-02T10:58:45.669Z,100488.63
2023-01-02T11:01:24.025Z,100474.09
2023-01-02T11:03:57.755Z,100501.44
2023-01-02T11:06:38.877Z,100481.69
2023-01-02T11:09:25.330Z,100480.03
2023-01-02T11:11:56.636Z,100472.41
2023-01-02T11:14:28.619Z,100491.94
2023-01-02T11:17:07.183Z,100433.78
2023-01-02T11:19:55.199Z,100506.63
2023-01-02T11:22:32.100Z,100483.47
2023-01-02T11:25:02.180Z,100520.28
2023-01-02T11:27:51.715Z,100520.19
2023-01-02T11:30:42.675Z,100472.22
2023-01-02T11:33:19.701Z,100534.94
2023-01-02T11:35:52.458Z,100528.88
2023-01-02T11:38:28.833Z,100534.03
2023-01-02T11:41:02.592Z,100502.28
2023-01-02T11:43:49.574Z,100522.78
2023-01-02T11:46:36.888Z,100537.22
2023-01-02T11:49:07.674Z,100531.25
2023-01-02T11:51:37.148Z,100530.34
2023-01-02T11:54:12.615Z,100511.44
2023-01-02T11:56:43.670Z,100472.84
2023-01-02T11:59:33.566Z,100529.34
2023-01-02T12:02:03.447Z,100525.81
2023-01-02T12:04:31.056Z,100489.09
2023-01-02T12:07:16.382Z,100532.75
2023-01-02T12:10:01.127Z,100531.75
2023-01-02T12:12:41.076Z,100544.59
2023-01-02T12:15:07.753Z,100546.25
2023-01-02T12:17:58.831Z,100555.75
2023-01-02T12:20:48.099Z,100509.38
2023-01-02T12:23:44.245Z,100550.34
2023-01-02T12:26:14.791Z,100550.50
2023-01-02T12:28:56.840Z,100534.09
2023-01-02T12:31:46.945Z,100570.06
2023-01-02T12:34:34.760Z,100558.13
2023-01-02T12:37:04.397Z,100575.94
2023-01-02T12:39:53.371Z,100574.13
2023-01-02T12:42:22.881Z,100583.69
2023-01-02T12:44:59.892Z,100580.16
2023-01-02T12:47:58.717Z,100581.84
2023-01-02T12:50:58.771Z,100588.69
2023-01-02T12:53:44.236Z,100581.00
2023-01-02T12:56:20.485Z,100585.31
2023-01-02T12:59:13.611Z,100580.97
2023-01-02T13:01:51.717Z,100565.66
2023-01-02T13:04:40.466Z,100555.16
2023-01-02T13:07:21.015Z,100567.88
2023-01-02T13:09:48.487Z,100545.59
2023-01-02T13:12:22.176Z,100543.91
2023-01-02T13:15:02.723Z,100586.75
2023-01-02T13:17:36.032Z,100584.03
2023-01-02T13:20:24.490Z,100577.06
2023-01-02T13:22:55.916Z,100581.53
2023-01-02T13:25:25.033Z,100584.00
2023-01-02T13:27:53.719Z,100515.63
2023-01-02T13:31:05.212Z,100597.81
2023-01-02T13:33:46.035Z,100584.97
2023-01-02T13:36:28.631Z,100599.41
2023-01-02T13:39:18.202Z,100583.00
2023-01-02T13:42:14.329Z,100571.84
2023-01-02T13:44:51.034Z,100590.13
2023-01-02T13:47:25.975Z,100587.72
2023-01-02T13:50:11.904Z,100585.00
2023-01-02T13:52:40.289Z,100584.22
2023-01-02T13:55:21.108Z,100625.47
2023-01-02T13:58:17.565Z,100626.25
2023-01-02T14:00:54.308Z,100628.28
2023-01-02T14:03:23.057Z,100626.34
2023-01-02T14:06:28.977Z,100620.19
2023-01-02T14:09:05.006Z,100621.97
2023-01-02T14:11:55.953Z,100633.97
2023-01-02T14:14:43.038Z,100626.34
2023-01-02T14:17:21.338Z,100629.81
2023-01-02T14:20:09.285Z,100599.78
2023-01-02T14:22:54.759Z,100595.53
2023-01-02T14:25:23.001Z,100608.44
2023-01-02T14:27:53.553Z,100604.06
2023-01-02T14:30:32.023Z,100593.19
2023-01-02T14:33:00.580Z,100627.63
2023-01-02T14:35:34.296Z,100603.63
2023-01-02T14:38:24.117Z,100623.41
2023-01-02T14:40:52.163Z,100619.38
2023-01-02T14:43:35.975Z,100560.25
2023-01-02T14:46:20.855Z,100669.34
2023-01-02T14:49:25.045Z,100668.59
2023-01-02T14:52:06.069Z,100664.41
2023-01-02T14:54:53.549Z,100658.41
2023-01-02T14:57:29.972Z,100649.91
2023-01-02T14:59:58.808Z,100650.97
2023-01-02T15:02:37.917Z,100651.13
2023-01-02T15:05:10.148Z,100636.53
2023-01-02T15:07:43.116Z,100685.44
2023-01-02T15:10:18.009Z,100635.63
2023-01-02T15:13:06.370Z,100700.94
2023-01-02T15:15:46.675Z,100652.91
2023-01-02T15:18:29.536Z,100697.59
2023-01-02T15:21:05.696Z,100689.09
2023-01-02T15:23:32.654Z,100654.88
2023-01-02T15:26:33.182Z,100665.22
2023-01-02T15:28:54.968Z,100667.66
2023-01-02T15:31:21.695Z,100718.47
2023-01-02T15:33:56.444Z,100716.84
2023-01-02T15:36:37.977Z,100716.00
2023-01-02T15:39:17.316Z,100687.75
2023-01-02T15:41:49.376Z,100725.56
2023-01-02T15:44:41.687Z,100664.56
2023-01-02T15:47:09.891Z,100680.06
2023-01-02T15:49:41.566Z,100731.59
2023-01-02T15:52:26.427Z,100733.31
2023-01-02T15:54:53.839Z,100710.06
2023-01-02T15:57:26.958Z,100716.97
2023-01-02T15:59:53.697Z,100738.38
2023-01-02T16:02:43.327Z,100749.63
2023-01-02T16:05:18.445Z,100744.50
2023-01-02T16:07:56.780Z,100746.25
2023-01-02T16:10:26.566Z,100750.56
2023-01-02T16:13:02.436Z,100711.94
2023-01-02T16:15:34.244Z,100705.06
2023-01-02T16:18:01.974Z,100692.19
2023-01-02T16:20:29.564Z,100699.09
2023-01-02T16:22:59.291Z,100767.03
2023-01-02T16:25:29.052Z,100712.91
2023-01-02T16:28:35.855Z,100733.56
2023-01-02T16:31:17.561Z,100730.09
2023-01-02T16:33:48.141Z,100735.28
2023-01-02T16:36:14.900Z,100767.09
2023-01-02T16:38:55.961Z,100745.59
2023-01-02T16:41:34.765Z,100773.97
2023-01-02T16:44:02.542Z,100783.44
2023-01-02T16:46:30.416Z,100757.66
2023-01-02T16:49:03.119Z,100727.53
2023-01-02T16:51:32.999Z,100729.25
2023-01-02T16:53:59.729Z,100729.25
2023-01-02T16:56:26.485Z,100739.56
2023-01-02T16:58:53.316Z,100764.50
2023-01-02T17:01:21.987Z,100742.16
2023-01-02T17:03:48.823Z,100769.69
2023-01-02T17:06:19.137Z,100793.75
2023-01-02T17:08:45.882Z,100731.84
2023-01-02T17:11:16.039Z,100770.56
2023-01-02T17:13:42.850Z,100743.88
2023-01-02T17:16:09.704Z,100759.34
2023-01-02T17:18:36.510Z,100767.09
2023-01-02T17:21:03.259Z,100765.38
2023-01-02T17:23:30.132Z,100754.19
2023-01-02T17:25:56.840Z,100751.59
2023-01-02T17:28:23.706Z,100767.09
2023-01-02T17:30:50.728Z,100770.53
2023-01-02T17:33:18.582Z,100751.63
2023-01-02T17:35:49.670Z,100790.34
2023-01-02T17:38:16.924Z,100793.78
2023-01-02T17:40:43.895Z,100773.13
2023-01-02T17:43:10.644Z,100765.38
2023-01-02T17:45:37.354Z,100765.38
2023-01-02T17:48:11.083Z,100768.81
2023-01-02T17:50:40.204Z,100771.41
2023-01-02T17:53:07.716Z,100814.41
2023-01-02T17:55:34.460Z,100757.63
2023-01-02T17:58:01.348Z,100799.81
2023-01-02T18:00:28.404Z,100834.22
2023-01-02T18:02:55.459Z,100829.91
2023-01-02T18:05:23.089Z,100824.72
2023-01-02T18:07:50.220Z,100820.44
2023-01-02T18:10:20.615Z,100787.69
2023-01-02T18:12:49.700Z,100782.53
2023-01-02T18:15:18.084Z,100820.38
2023-01-02T18:17:44.952Z,100784.25
2023-01-02T18:20:17.802Z,100777.34
2023-01-02T18:22:49.590Z,100814.38
2023-01-02T18:25:27.405Z,100778.25
2023-01-02T18:28:11.019Z,100844.53
2023-01-02T18:30:37.737Z,100769.66
2023-01-02T18:33:12.731Z,100823.03
2023-01-02T18:38:37.971Z,100787.75
2023-01-02T18:41:24.681Z,100825.59
2023-01-02T18:43:55.134Z,100854.00
2023-01-02T18:47:04.334Z,100795.50
2023-01-02T18:49:26.699Z,100839.38
2023-01-02T18:52:12.495Z,100844.53
2023-01-02T18:54:45.701Z,100881.53
2023-01-02T18:57:15.643Z,100872.06
2023-01-02T18:59:52.130Z,100857.44
2023-01-02T19:02:28.042Z,100871.22
2023-01-02T19:04:56.700Z,100866.06
2023-01-02T19:07:28.336Z,100873.81
2023-01-02T19:10:10.383Z,100876.38
2023-01-02T19:13:07.299Z,100878.94
2023-01-02T19:15:48.102Z,100871.16
2023-01-02T19:18:14.779Z,100889.22
2023-01-02T19:20:43.303Z,100820.38
2023-01-02T19:23:24.921Z,100885.78
2023-01-02T19:25:52.914Z,100892.66
2023-01-02T19:28:30.896Z,100843.56
2023-01-02T19:30:58.016Z,100858.16
2023-01-02T19:33:51.585Z,100902.94
2023-01-02T19:36:19.851Z,100916.72
2023-01-02T19:38:49.499Z,100873.63
2023-01-02T19:41:16.634Z,100886.56
2023-01-02T19:43:43.304Z,100874.47
2023-01-02T19:46:10.058Z,100851.19
2023-01-02T19:48:36.851Z,100859.00
2023-01-02T19:51:03.632Z,100886.53
2023-01-02T19:53:30.337Z,100875.31
2023-01-02T19:55:57.073Z,100852.09
2023-01-02T19:58:23.776Z,100872.81
2023-01-02T20:00:50.512Z,100885.69
2023-01-02T20:03:17.302Z,100885.69
2023-01-02T20:05:44.114Z,100914.91
2023-01-02T20:08:10.886Z,100860.69
2023-01-02T20:10:37.665Z,100916.69
2023-01-02T20:13:04.423Z,100907.16
2023-01-02T20:15:31.288Z,100856.34
2023-01-02T20:17:59.724Z,100903.69
2023-01-02T20:20:29.718Z,100866.66
2023-01-02T20:22:56.622Z,100869.28
2023-01-02T20:25:26.334Z,100923.53
2023-01-02T20:27:54.663Z,100898.53
2023-01-02T20:30:24.559Z,100920.09
2023-01-02T20:32:52.663Z,100906.28
2023-01-02T20:35:19.458Z,100847.69
2023-01-02T20:37:46.200Z,100903.63
2023-01-02T20:40:13.045Z,100936.38
2023-01-02T20:42:39.828Z,100855.41
2023-01-02T20:45:07.209Z,100930.41
2023-01-02T20:47:36.461Z,100893.31
2023-01-02T20:50:03.713Z,100937.28
2023-01-02T20:52:30.379Z,100912.34
2023-01-02T20:54:57.325Z,100901.13
2023-01-02T20:57:24.194Z,100916.59
2023-01-02T20:59:51.103Z,100908.84
2023-01-02T21:02:18.178Z,100889.88
2023-01-02T21:04:45.062Z,100914.03
2023-01-02T21:07:11.773Z,100885.56
2023-01-02T21:09:38.606Z,100902.78
2023-01-02T21:12:25.362Z,100887.28
2023-01-02T21:14:52.110Z,100862.25
2023-01-02T21:17:18.816Z,100930.31
2023-01-02T21:19:45.563Z,100861.31
2023-01-02T21:22:12.289Z,100879.38
2023-01-02T21:24:39.025Z,100862.06
2023-01-02T21:27:12.594Z,100934.44
2023-01-02T21:29:39.887Z,100887.91
2023-01-02T21:32:06.590Z,100899.16
2023-01-02T21:34:33.320Z,100904.41
2023-01-02T21:37:00.199Z,100917.31
2023-01-02T21:39:26.916Z,100905.25
2023-01-02T21:42:12.105Z,100864.78
2023-01-02T21:44:38.826Z,100906.16
2023-01-02T21:47:05.570Z,100906.16
2023-01-02T21:49:32.614Z,100940.69
2023-01-02T21:52:00.322Z,100865.75
2023-01-02T21:54:27.876Z,100940.78
2023-01-02T21:56:54.693Z,100926.13
2023-01-02T21:59:25.319Z,100883.06
2023-01-02T22:01:53.515Z,100903.75
2023-01-02T22:04:21.140Z,100878.81
2023-01-02T22:07:29.649Z,100913.28
2023-01-02T22:09:35.557Z,100901.25
2023-01-02T22:12:02.581Z,100858.22
2023-01-02T22:14:30.602Z,100915.91
2023-01-02T22:16:59.770Z,100905.59
2023-01-02T22:19:27.755Z,100950.38
2023-01-02T22:21:55.495Z,100920.25
2023-01-02T22:24:24.099Z,100931.44
2023-01-02T22:26:52.883Z,100931.44
2023-01-02T22:29:21.513Z,100889.22
2023-01-02T22:31:49.776Z,100856.50
2023-01-02T22:34:21.311Z,100964.19
2023-01-02T22:36:48.113Z,100907.31
2023-01-02T22:39:28.065Z,100903.03
2023-01-02T22:42:49.374Z,100939.22
2023-01-02T22:45:21.514Z,100959.03
2023-01-02T22:47:48.392Z,100894.47
2023-01-02T22:50:22.247Z,100913.41
2023-01-02T22:52:50.695Z,100885.00
2023-01-02T22:55:20.647Z,100931.50
2023-01-02T22:57:51.433Z,100930.63
2023-01-02T23:00:22.412Z,100934.91
2023-01-02T23:02:50.658Z,100928.00
2023-01-02T23:05:22.720Z,100894.44
2023-01-02T23:07:54.738Z,100842.81
2023-01-02T23:10:21.504Z,100854.00
2023-01-02T23:12:49.703Z,100915.13
2023-01-02T23:15:16.528Z,100829.06
2023-01-02T23:18:01.684Z,100849.72
2023-01-02T23:20:28.505Z,100860.03
2023-01-02T23:22:55.247Z,100882.41
2023-01-02T23:25:22.082Z,100916.84
2023-01-02T23:27:48.857Z,100889.31
2023-01-02T23:30:15.746Z,100906.50
2023-01-02T23:32:42.579Z,100889.28
2023-01-02T23:35:10.186Z,100921.13
2023-01-02T23:37:37.058Z,100904.75
2023-01-02T23:40:04.085Z,100876.38
2023-01-02T23:42:30.896Z,100940.13
2023-01-02T23:44:57.616Z,100866.91
2023-01-02T23:47:24.417Z,100888.44
2023-01-02T23:49:51.224Z,100910.81
2023-01-02T23:52:18.032Z,100889.28
2023-01-02T23:54:44.805Z,100878.13
2023-01-02T23:57:11.590Z,100875.53
2023-01-02T23:59:38.329Z,100904.81
